Airfield :
LOGIN :

Register | Disclaimer

   EN    FR    IT 

 










Legend :    VFR   Marginal VFR   IFR   Intensive IFR   Very Intensive IFR
Visi :
Ceiling :
>= 8 km
>= 3000ft
5 to 8 km
1000 to 3000 ft
1500m to 5 km
500 to 1000 ft
800 to 1500m
200 to 500 ft
< 800m
< 200 ft
Symbols :   Thunderstorms  Fog  Heavy snow  Heavy precipitations  Wind > 20 kt
SIGMETs :     Misc.  Thunderstorms  Icing  Turbulence  Mountain Waves  Volcanic Ashes






- Airport Elevation : 141 ft
- IATA code : SKS


EKSP - Srydstrup Vojens

CURRENT METAR :
  • 231920Z 12002KT 9999 FEW032 17/12 Q1016

EXPIRED METARs :
  • 231850Z 11003KT 9999 FEW032 19/12 Q1016
  • 231820Z 11003KT 9999 FEW032 19/12 Q1016
  • 231750Z 11004KT 080V140 9999 FEW032 19/12 Q1016
  • 231720Z 11004KT 060V160 9999 FEW035 20/12 Q1016
  • 231650Z 12005KT 9999 FEW035 20/11 Q1016

TAF TAF EKSP
Valid from the 23 at 18:00 until the 24 at 18:00 UTC


231703Z 2318/2418 VRB03KT 9999 BKN030
TEMPO 2400/2406 3000 MIFG BR
BECMG 2406/2409 10010KT



MET'MAP, your aeronautical weather chart ! - Copyright ORBIFLY December 2007 - Disclaimer

ORBIFLY MET'MAP TEAM :

Programming & Development : Alexandra Zaïnal
Concept & original design : Baudouin d'Aumeries
Assistance for programming : Marc-Olivier Méhu
Technical & hardware support : Manuel Goepfert

Contact : metmap@orbifly.com




SOURCES & CREDITS :

   NOAA